URBH weather

Urbenville Helipad
Urbenville, New South Wales, Australia

Public forecast

Using degrees Celsius for public forecast. Weather courtesy of forecast.io.

METAR (pilot weather report)

Closest report is Casino Airport, 36.8 nm (68.2 km) SE. Retrieved 2019/02/19 17:00 UTC (6 minutes ago):

YCAS 191700Z AUTO 18003KT //// // ////// 22/20 Q1008

TAF (pilot weather forecast)

Forecast is more than 6 hours old.

Closest forecast is RAAF Base Amberley, 50.5 nm (93.5 km) N. Retrieved 2019/02/19 06:00 UTC (11 hours ago):

TAF YAMB 190533Z 1906/1924 06015KT CAVOK FM191000 09008KT 9999 FEW020 FM191500 VRB03KT 9999 SCT020